sensor_id;sensor_type;location;lat;lon;timestamp;P1;durP1;ratioP1;P2;durP2;ratioP2
53287;SDS011;39172;45.550;12.072;2023-04-01T00:00:05;14.38;;;10.45;;
53287;SDS011;39172;45.550;12.072;2023-04-01T00:06:13;16.70;;;12.55;;
53287;SDS011;39172;45.550;12.072;2023-04-01T00:12:15;14.35;;;11.02;;
53287;SDS011;39172;45.550;12.072;2023-04-01T00:18:17;10.65;;;8.13;;
53287;SDS011;39172;45.550;12.072;2023-04-01T00:24:18;12.63;;;9.05;;
53287;SDS011;39172;45.550;12.072;2023-04-01T00:30:19;17.05;;;13.05;;
53287;SDS011;39172;45.550;12.072;2023-04-01T00:36:21;17.13;;;13.50;;
53287;SDS011;39172;45.550;12.072;2023-04-01T00:42:24;17.40;;;12.40;;
53287;SDS011;39172;45.550;12.072;2023-04-01T00:48:27;15.27;;;11.20;;
53287;SDS011;39172;45.550;12.072;2023-04-01T00:54:30;14.25;;;10.85;;
53287;SDS011;39172;45.550;12.072;2023-04-01T01:00:32;12.25;;;9.23;;
53287;SDS011;39172;45.550;12.072;2023-04-01T01:31:15;6.80;;;5.47;;
53287;SDS011;39172;45.550;12.072;2023-04-01T01:37:21;10.10;;;7.88;;
53287;SDS011;39172;45.550;12.072;2023-04-01T01:43:26;10.20;;;7.80;;
53287;SDS011;39172;45.550;12.072;2023-04-01T01:49:29;13.77;;;10.18;;
53287;SDS011;39172;45.550;12.072;2023-04-01T01:55:36;12.70;;;9.10;;
53287;SDS011;39172;45.550;12.072;2023-04-01T02:01:39;9.02;;;7.00;;
53287;SDS011;39172;45.550;12.072;2023-04-01T02:07:55;14.02;;;9.77;;
53287;SDS011;39172;45.550;12.072;2023-04-01T02:14:01;17.52;;;13.02;;
53287;SDS011;39172;45.550;12.072;2023-04-01T02:20:14;20.17;;;14.85;;
53287;SDS011;39172;45.550;12.072;2023-04-01T02:26:16;19.30;;;14.70;;
53287;SDS011;39172;45.550;12.072;2023-04-01T02:32:19;17.63;;;13.05;;
53287;SDS011;39172;45.550;12.072;2023-04-01T02:38:21;13.27;;;10.02;;
53287;SDS011;39172;45.550;12.072;2023-04-01T02:44:22;11.38;;;8.30;;
53287;SDS011;39172;45.550;12.072;2023-04-01T02:50:23;15.48;;;11.68;;
53287;SDS011;39172;45.550;12.072;2023-04-01T02:56:24;19.17;;;14.75;;
53287;SDS011;39172;45.550;12.072;2023-04-01T03:02:26;17.50;;;12.45;;
53287;SDS011;39172;45.550;12.072;2023-04-01T03:08:27;19.13;;;13.80;;
53287;SDS011;39172;45.550;12.072;2023-04-01T03:14:28;13.60;;;10.38;;
53287;SDS011;39172;45.550;12.072;2023-04-01T03:20:30;16.65;;;12.20;;
53287;SDS011;39172;45.550;12.072;2023-04-01T03:26:31;19.77;;;14.45;;
53287;SDS011;39172;45.550;12.072;2023-04-01T03:32:32;18.02;;;13.10;;
53287;SDS011;39172;45.550;12.072;2023-04-01T03:38:34;15.90;;;12.02;;
53287;SDS011;39172;45.550;12.072;2023-04-01T03:44:35;15.40;;;12.15;;
53287;SDS011;39172;45.550;12.072;2023-04-01T03:50:36;16.25;;;12.25;;
53287;SDS011;39172;45.550;12.072;2023-04-01T03:56:37;15.52;;;11.93;;
53287;SDS011;39172;45.550;12.072;2023-04-01T04:02:38;14.40;;;11.05;;
53287;SDS011;39172;45.550;12.072;2023-04-01T04:08:39;13.32;;;10.57;;
53287;SDS011;39172;45.550;12.072;2023-04-01T04:14:40;10.85;;;8.48;;
53287;SDS011;39172;45.550;12.072;2023-04-01T04:20:45;11.27;;;8.85;;
53287;SDS011;39172;45.550;12.072;2023-04-01T04:26:48;16.80;;;12.35;;
53287;SDS011;39172;45.550;12.072;2023-04-01T04:32:49;16.77;;;12.35;;
53287;SDS011;39172;45.550;12.072;2023-04-01T04:38:50;14.45;;;11.07;;
53287;SDS011;39172;45.550;12.072;2023-04-01T04:44:51;17.50;;;12.13;;
53287;SDS011;39172;45.550;12.072;2023-04-01T04:50:52;14.43;;;11.00;;
53287;SDS011;39172;45.550;12.072;2023-04-01T04:56:57;14.88;;;11.95;;
53287;SDS011;39172;45.550;12.072;2023-04-01T05:03:00;17.60;;;13.00;;
53287;SDS011;39172;45.550;12.072;2023-04-01T05:09:01;18.73;;;14.48;;
53287;SDS011;39172;45.550;12.072;2023-04-01T05:15:03;16.10;;;12.20;;
53287;SDS011;39172;45.550;12.072;2023-04-01T05:21:06;15.13;;;11.30;;
53287;SDS011;39172;45.550;12.072;2023-04-01T05:27:07;12.43;;;10.07;;
53287;SDS011;39172;45.550;12.072;2023-04-01T05:33:13;13.25;;;10.65;;
53287;SDS011;39172;45.550;12.072;2023-04-01T05:39:14;11.25;;;9.32;;
53287;SDS011;39172;45.550;12.072;2023-04-01T05:45:15;14.85;;;11.88;;
53287;SDS011;39172;45.550;12.072;2023-04-01T05:51:39;15.07;;;11.80;;
53287;SDS011;39172;45.550;12.072;2023-04-01T05:57:42;13.40;;;10.48;;
53287;SDS011;39172;45.550;12.072;2023-04-01T06:03:45;11.45;;;9.30;;
53287;SDS011;39172;45.550;12.072;2023-04-01T06:09:46;10.35;;;9.10;;
53287;SDS011;39172;45.550;12.072;2023-04-01T07:00:30;11.38;;;9.00;;
53287;SDS011;39172;45.550;12.072;2023-04-01T07:06:44;13.68;;;10.65;;
53287;SDS011;39172;45.550;12.072;2023-04-01T07:12:48;11.73;;;9.15;;
53287;SDS011;39172;45.550;12.072;2023-04-01T07:25:42;7.93;;;6.10;;
53287;SDS011;39172;45.550;12.072;2023-04-01T07:44:54;6.15;;;5.22;;
53287;SDS011;39172;45.550;12.072;2023-04-01T07:51:01;7.40;;;5.78;;
53287;SDS011;39172;45.550;12.072;2023-04-01T07:57:14;5.75;;;4.53;;
53287;SDS011;39172;45.550;12.072;2023-04-01T08:22:20;4.50;;;3.60;;
53287;SDS011;39172;45.550;12.072;2023-04-01T08:28:30;4.38;;;3.00;;
53287;SDS011;39172;45.550;12.072;2023-04-01T08:34:39;5.68;;;3.88;;
53287;SDS011;39172;45.550;12.072;2023-04-01T08:41:00;3.80;;;2.97;;
53287;SDS011;39172;45.550;12.072;2023-04-01T09:00:01;2.85;;;2.30;;
53287;SDS011;39172;45.550;12.072;2023-04-01T09:06:29;2.45;;;2.00;;
53287;SDS011;39172;45.550;12.072;2023-04-01T09:19:02;2.30;;;2.00;;
53287;SDS011;39172;45.550;12.072;2023-04-01T09:31:16;2.40;;;1.92;;
53287;SDS011;39172;45.550;12.072;2023-04-01T10:08:54;1.95;;;1.70;;
53287;SDS011;39172;45.550;12.072;2023-04-01T10:40:13;3.13;;;2.10;;
53287;SDS011;39172;45.550;12.072;2023-04-01T10:47:12;1.85;;;1.73;;
53287;SDS011;39172;45.550;12.072;2023-04-01T11:31:54;3.20;;;2.40;;
53287;SDS011;39172;45.550;12.072;2023-04-01T11:44:10;2.92;;;2.50;;
53287;SDS011;39172;45.550;12.072;2023-04-01T11:51:18;3.72;;;2.90;;
53287;SDS011;39172;45.550;12.072;2023-04-01T12:09:30;3.92;;;3.17;;
53287;SDS011;39172;45.550;12.072;2023-04-01T12:15:50;4.05;;;2.55;;
53287;SDS011;39172;45.550;12.072;2023-04-01T12:28:21;6.17;;;3.60;;
53287;SDS011;39172;45.550;12.072;2023-04-01T12:34:37;4.53;;;3.20;;
53287;SDS011;39172;45.550;12.072;2023-04-01T13:12:12;8.57;;;6.93;;
53287;SDS011;39172;45.550;12.072;2023-04-01T13:30:27;9.20;;;7.00;;
53287;SDS011;39172;45.550;12.072;2023-04-01T13:36:35;9.63;;;7.28;;
53287;SDS011;39172;45.550;12.072;2023-04-01T13:42:40;7.85;;;6.00;;
53287;SDS011;39172;45.550;12.072;2023-04-01T14:20:27;8.57;;;6.00;;
53287;SDS011;39172;45.550;12.072;2023-04-01T14:50:54;9.80;;;6.80;;
53287;SDS011;39172;45.550;12.072;2023-04-01T15:22:31;10.18;;;7.25;;
53287;SDS011;39172;45.550;12.072;2023-04-01T15:34:45;9.38;;;7.03;;
53287;SDS011;39172;45.550;12.072;2023-04-01T15:40:59;11.68;;;7.75;;
53287;SDS011;39172;45.550;12.072;2023-04-01T15:47:02;9.75;;;6.47;;
53287;SDS011;39172;45.550;12.072;2023-04-01T15:59:29;8.70;;;6.07;;
53287;SDS011;39172;45.550;12.072;2023-04-01T16:24:05;8.35;;;5.82;;
53287;SDS011;39172;45.550;12.072;2023-04-01T16:42:43;7.57;;;5.63;;
53287;SDS011;39172;45.550;12.072;2023-04-01T16:48:49;9.05;;;6.97;;
53287;SDS011;39172;45.550;12.072;2023-04-01T16:54:54;9.10;;;6.72;;
53287;SDS011;39172;45.550;12.072;2023-04-01T17:01:17;10.35;;;7.10;;
53287;SDS011;39172;45.550;12.072;2023-04-01T17:07:23;8.98;;;6.72;;
53287;SDS011;39172;45.550;12.072;2023-04-01T17:13:41;8.38;;;6.53;;
53287;SDS011;39172;45.550;12.072;2023-04-01T17:32:09;8.85;;;6.28;;
53287;SDS011;39172;45.550;12.072;2023-04-01T17:44:48;8.70;;;5.43;;
53287;SDS011;39172;45.550;12.072;2023-04-01T18:03:12;10.57;;;7.25;;
53287;SDS011;39172;45.550;12.072;2023-04-01T18:21:46;14.07;;;10.50;;
53287;SDS011;39172;45.550;12.072;2023-04-01T18:27:52;14.88;;;10.88;;
53287;SDS011;39172;45.550;12.072;2023-04-01T18:46:00;20.67;;;14.23;;
53287;SDS011;39172;45.550;12.072;2023-04-01T18:52:09;20.17;;;13.52;;
53287;SDS011;39172;45.550;12.072;2023-04-01T18:58:19;23.17;;;15.88;;
53287;SDS011;39172;45.550;12.072;2023-04-01T19:04:28;20.90;;;13.77;;
53287;SDS011;39172;45.550;12.072;2023-04-01T19:40:51;22.83;;;15.75;;
53287;SDS011;39172;45.550;12.072;2023-04-01T19:46:55;16.55;;;11.93;;
53287;SDS011;39172;45.550;12.072;2023-04-01T19:52:58;15.10;;;11.10;;
53287;SDS011;39172;45.550;12.072;2023-04-01T20:05:23;25.70;;;17.25;;
53287;SDS011;39172;45.550;12.072;2023-04-01T20:29:41;31.40;;;21.02;;
53287;SDS011;39172;45.550;12.072;2023-04-01T20:35:52;34.20;;;22.58;;
53287;SDS011;39172;45.550;12.072;2023-04-01T20:54:11;30.40;;;19.42;;
53287;SDS011;39172;45.550;12.072;2023-04-01T21:12:56;19.73;;;14.60;;
53287;SDS011;39172;45.550;12.072;2023-04-01T21:38:00;23.50;;;16.38;;
53287;SDS011;39172;45.550;12.072;2023-04-01T22:08:55;15.70;;;11.95;;
53287;SDS011;39172;45.550;12.072;2023-04-01T22:15:03;15.93;;;11.95;;
53287;SDS011;39172;45.550;12.072;2023-04-01T22:21:23;17.77;;;13.10;;
53287;SDS011;39172;45.550;12.072;2023-04-01T22:46:17;14.90;;;10.80;;
53287;SDS011;39172;45.550;12.072;2023-04-01T22:52:43;17.35;;;12.38;;
53287;SDS011;39172;45.550;12.072;2023-04-01T22:58:56;13.60;;;10.27;;
53287;SDS011;39172;45.550;12.072;2023-04-01T23:05:02;13.68;;;9.18;;
53287;SDS011;39172;45.550;12.072;2023-04-01T23:11:07;14.27;;;9.40;;
53287;SDS011;39172;45.550;12.072;2023-04-01T23:29:20;14.68;;;10.98;;
53287;SDS011;39172;45.550;12.072;2023-04-01T23:35:21;12.82;;;9.88;;
53287;SDS011;39172;45.550;12.072;2023-04-01T23:47:24;13.85;;;10.13;;
53287;SDS011;39172;45.550;12.072;2023-04-01T23:53:26;20.02;;;14.48;;
53287;SDS011;39172;45.550;12.072;2023-04-01T23:59:30;21.75;;;15.07;;
